WEATHER DATA

YESTERDAY
Time Temp. Dewp. Hum. Wind dir Wind speed Wind gust Bar.
00:00 15.4 10.2 71 280 2.2 2.8 1008.6
00:10 15.3 10.1 71 280 1.9 2.8 1008.5
00:20 15.2 10 71 280 1.9 3.1 1008.6
00:30 15.1 10.1 72 284 2.2 2.8 1008.4
00:40 15 10.2 73 279 1.9 2.8 1008.5
00:50 14.9 10.3 74 279 1.9 2.8 1008.7
01:01 14.8 10.2 74 279 1.9 3.1 1008.9
01:10 14.6 10.2 75 276 1.9 3.1 1008.7
01:20 14.5 10.3 76 279 1.9 2.8 1008.7
01:30 14.5 10.1 75 280 1.9 2.8 1008.6
01:41 14.5 10.3 76 279 1.9 2.8 1008.5
01:50 14.3 10.1 76 277 2.2 3.1 1008.4
02:00 14.3 10.5 78 270 1.9 2.8 1008.3
02:11 14.2 10.2 77 284 1.9 2.8 1008.2
02:21 14.1 10.3 78 278 1.9 2.8 1008.1
02:31 14.1 10.5 79 270 1.9 2.5 1008
02:41 14 10.4 79 270 1.9 2.5 1007.6
02:51 14 10.2 78 275 1.7 2.5 1007.6
03:01 14.1 10.3 78 270 1.9 3.3 1007.5
03:11 13.9 10.1 78 286 1.9 3.3 1007.5
03:22 13.7 10.1 79 270 1.9 3.1 1007.8
03:31 13.7 10.1 79 291 1.9 3.1 1007.8
03:41 13.7 10.1 79 280 1.9 2.5 1008
03:51 13.7 10.1 79 282 1.9 2.8 1008.1
04:02 13.7 10.3 80 277 1.9 2.8 1008
04:12 13.7 10.1 79 301 1.9 3.1 1007.9
04:21 13.6 10.2 80 279 1.9 2.5 1007.8
04:32 13.5 10.3 81 283 1.9 2.8 1007.5
04:42 13.4 10.4 82 285 1.9 2.8 1007.5
04:52 13.4 10.2 81 283 1.9 2.8 1007.5
05:02 13.4 10.2 81 285 1.9 2.5 1007.4
05:12 13.4 10.2 81 283 1.9 2.5 1007.4
05:22 13.4 10.2 81 298 1.7 3.1 1007.3
05:32 13.4 10.4 82 280 1.7 2.5 1007.1
05:43 13.5 10.7 83 270 1.7 2.8 1007
05:52 13.4 10.6 83 270 1.7 2.5 1007.1
06:02 13.5 10.5 82 270 1.9 2.8 1007.2
06:12 13.5 10.5 82 298 1.7 2.8 1007.1
06:23 13.6 10.8 83 270 1.7 2.5 1007.2
06:33 13.7 10.7 82 277 1.4 2.2 1007.2
06:42 13.8 10.6 81 285 1.7 2.8 1007.2
06:53 13.9 10.7 81 279 1.4 2.8 1007.2
07:03 13.9 10.9 82 284 1.1 2.2 1007.1
07:13 14 10.8 81 298 1.1 2.2 1007.1
07:22 14 10.8 81 294 0.8 1.7 1007.1
07:33 14 11 82 321 0.6 0.8 1006.9
07:43 14 11 82 340 0.6 1.1 1006.8
07:53 14.1 11.3 83 344 0.6 1.1 1006.7
08:03 14.3 11.5 83 241 0.6 1.4 1006.7
08:13 14.4 11.7 84 221 0.8 1.7 1006.8
08:24 14.5 11.7 83 238 1.9 3.1 1006.8
08:34 14.6 11.6 82 238 2.5 3.6 1006.9
08:43 14.7 11.8 83 240 2.8 4.2 1006.9
08:53 14.7 11.7 82 247 1.9 3.6 1007.1
09:04 14.5 11.7 83 239 1.4 1.9 1007.1
09:14 14.5 11.8 84 254 1.4 2.8 1007
09:24 14.4 12.3 87 239 1.4 1.9 1007.1
09:34 14.4 12.8 90 238 2.2 3.3 1007.1
09:44 14.6 13.1 91 240 3.6 6.9 1007.1
09:54 14.7 13.2 91 244 3.1 5 1007.1
10:04 14.9 13.6 92 246 3.1 3.9 1007.2
10:15 14.8 13.7 93 249 3.3 4.7 1007.2
10:24 14.8 13.7 93 247 3.3 4.4 1007.3
10:34 14.8 13.8 94 248 3.6 4.7 1007.4
10:45 14.7 14.1 96 248 3.1 4.4 1007.5
10:55 14.7 14.2 97 245 3.6 4.7 1007.4
11:05 14.7 14.4 98 252 4.4 6.4 1007.4
11:14 14.9 14.6 98 245 5.8 9.2 1007.4
11:25 15 14.7 98 237 5.6 9.2 1007.4
11:35 15 14.8 99 238 5.8 10 1007.4
11:45 15.1 14.9 99 232 4.2 11.4 1007.4
11:55 15.1 14.9 99 248 3.3 7.8 1007.4
12:05 15.2 15 99 252 4.7 7.2 1007.3
12:15 15.3 15.1 99 248 4.4 6.4 1007.2
12:25 15.5 15.3 99 248 5.8 9.4 1007.2
12:36 15.6 15.4 99 249 5 10.8 1007.1
12:45 15.7 15.4 98 313 2.8 7.5 1007.2
12:55 15.8 15.6 99 6 2.5 5.6 1007.1
13:06 16 15.7 98 9 2.8 5.3 1007.1
13:16 16.1 15.9 99 32 2.5 5.8 1007.1
13:26 16.2 16 99 64 2.8 6.1 1007.2
13:35 16.2 15.9 98 1 3.1 6.7 1007.4
13:38 16.2 15.9 98 336 3.3 9.7 1007.4
13:48 15.9 15.4 97 243 6.1 10.6 1007.5
13:59 15.8 15.3 97 244 5.8 10.6 1007.4
14:09 15.8 15.5 98 254 5.3 8.3 1007.4
14:16 15.8 15.5 98 270 3.3 6.7 1007.2
14:29 15.9 15.6 98 305 1.9 7.8 1007.2
14:38 15.9 15.4 97 284 2.2 5.8 1007.2
14:49 16 15.4 96 342 2.2 4.7 1007.2
14:59 16.2 15.6 96 320 2.2 5.8 1007
15:09 16.2 15.4 95 98 3.1 6.1 1006.9
15:19 16.5 15.7 95 93 3.6 6.4 1007
15:31 16.9 15.8 93 64 5.3 8.3 1006.9
15:41 17.2 15.7 91 81 6.1 8.3 1007
15:51 17.4 16.1 92 81 6.1 8.3 1007
16:00 17.5 15.5 88 81 6.1 8.3 1007
16:11 17.8 16.3 91 81 6.1 8.3 1006.8
16:21 18.1 15.7 86 81 6.1 8.3 1006.8
16:31 18.3 15.9 86 81 6.1 8.3 1006.8
16:41 18.5 15 80 205 2.8 3.1 1007
16:51 18.6 15.5 82 138 2.8 4.2 1006.8
17:01 18.8 14.5 76 188 2.5 3.6 1006.8
17:11 18.9 15.2 79 58 4.2 6.4 1006.8
17:22 18.9 14.2 74 108 2.5 7.2 1006.6
17:31 19.1 15 77 133 2.8 6.1 1006.7
17:46 18.9 14.2 74 213 6.4 15 1006.8
17:57 18.6 13.9 74 248 3.6 6.4 1006.9
18:06 18.5 14 75 246 3.6 7.8 1006.8
18:16 18.4 14.1 76 250 4.7 7.5 1006.8
18:27 18.4 13.7 74 247 3.3 6.7 1006.8
18:37 18.3 13.8 75 298 1.1 2.8 1006.8
18:47 18.1 13.8 76 315 0.6 1.1 1006.8
18:56 18 13.9 77 303 0.8 1.9 1006.8
19:07 17.8 13.3 75 258 1.1 2.2 1006.8
19:17 17.6 13.1 75 258 1.4 2.5 1007
19:27 17.4 13.1 76 253 1.1 2.2 1006.9
19:37 17.3 13 76 225 1.1 2.2 1006.9
19:47 17.1 13 77 254 1.4 3.1 1007.1
19:57 17 13.1 78 236 1.1 1.9 1007.2
20:07 16.8 13.1 79 223 1.1 2.2 1007.2
20:18 16.6 12.9 79 248 1.4 2.5 1007.1
20:27 16.4 12.9 80 239 1.1 1.9 1007.3
20:37 16.2 13.1 82 270 1.4 2.5 1007.3
20:48 16.2 13.3 83 270 1.4 2.2 1007.4
20:58 16.1 13.2 83 270 1.7 2.2 1007.6
21:08 16 13.1 83 283 2.2 3.3 1007.6
21:17 15.8 13.1 84 280 2.2 3.1 1007.6
21:28 15.5 12.8 84 279 1.9 3.1 1007.8
21:38 15.2 12.7 85 277 1.9 3.1 1007.8
21:48 15.1 12.4 84 275 1.9 3.3 1007.8
21:58 15 12.3 84 278 1.9 3.1 1007.8
22:08 15.1 12.6 85 278 1.9 3.3 1007.9
22:18 15.2 12.5 84 282 2.2 3.1 1008
22:28 15.2 12.5 84 280 2.2 3.1 1008
22:39 15 12.3 84 276 1.9 2.8 1007.9
22:48 14.9 12.2 84 275 1.9 3.1 1008
22:58 14.7 12 84 270 1.9 3.1 1008
23:09 14.5 11.8 84 275 2.2 3.1 1008.1
23:19 14.3 11.6 84 279 1.9 3.1 1008.1
23:29 14.1 11.4 84 275 1.9 3.1 1008.1
23:38 13.7 11 84 274 2.2 3.1 1008.2
23:49 13.5 11 85 270 1.9 3.1 1008.1

DAY STATISTIC

2021-08-01
TEMPERATURE
AVERAGE
15.4
HIGH
19.1
17:31
LOW
13.4
04:42
PRESSURE
AVERAGE
1007.4
HIGH
1008.9
01:01
LOW
1006.6
17:22
DEWPOINT
AVERAGE
12.7
HIGH
16.3
16:11
LOW
10.0
00:20
HUMIDITY
AVERAGE
85
HIGH
99
11:35
LOW
71
00:00
WIND SPEED
AVERAGE
2.5
HIGH
6.4
17:46
WIND GUST
AVERAGE
4.3
HIGH
15.0
17:46
WIND DIRECTION
PREVAILING
W
55.9%
N
4.2
NE
2.8
E
6.3
SE
1.4
S
0.7
SW
19.6
W
55.9
NW
9.1
TEMPERATURE (°C)
LOW
13.4
HIGH
19.1
AVERAGE
15.4
PRESSURE (hpa)
LOW
1006.6
HIGH
1008.9
AVERAGE
1007.4
DEVICE